TimeCST,TemperatureF,Dew PointF,Humidity,Sea Level PressureIn,VisibilityMPH,Wind Direction,Wind SpeedMPH,Gust SpeedMPH,PrecipitationIn,Events,Conditions,WindDirDegrees,DateUTC
12:03 AM,28.4,19.4,69,30.30,10.0,NNW,17.3,25.3,N/A,,Overcast,340,2013-03-06 06:03:00
12:58 AM,28.2,19.2,69,30.36,10.0,NNW,17.3,-,N/A,,Overcast,330,2013-03-06 06:58:00
1:33 AM,28.4,19.4,69,30.33,10.0,NNW,15.0,-,N/A,,Overcast,330,2013-03-06 07:33:00
1:53 AM,26.6,19.4,74,30.33,10.0,NNW,15.0,-,N/A,,Overcast,340,2013-03-06 07:53:00
1:58 AM,27.5,18.9,70,30.37,10.0,NNW,15.0,-,N/A,,Overcast,340,2013-03-06 07:58:00
2:43 AM,26.6,19.4,74,30.33,10.0,NNW,12.7,-,N/A,,Overcast,330,2013-03-06 08:43:00
2:58 AM,27.1,19.0,72,30.38,10.0,NNW,15.0,-,N/A,,Overcast,330,2013-03-06 08:58:00
3:58 AM,27.0,18.3,70,30.39,10.0,NNW,19.6,27.6,N/A,,Overcast,340,2013-03-06 09:58:00
4:13 AM,26.6,19.4,74,30.35,10.0,NNW,12.7,-,N/A,,Overcast,330,2013-03-06 10:13:00
4:58 AM,26.6,18.3,71,30.40,10.0,NW,8.1,-,N/A,,Overcast,320,2013-03-06 10:58:00
5:58 AM,25.5,18.1,74,30.42,10.0,NW,8.1,-,N/A,,Mostly Cloudy,310,2013-03-06 11:58:00
6:58 AM,23.9,18.0,78,30.44,10.0,NW,8.1,-,N/A,,Clear,320,2013-03-06 12:58:00
7:58 AM,24.8,18.3,76,30.44,10.0,NNW,10.4,-,N/A,,Clear,330,2013-03-06 13:58:00
8:58 AM,26.4,19.0,74,30.46,10.0,North,11.5,-,N/A,,Clear,350,2013-03-06 14:58:00
9:48 AM,26.6,19.4,74,30.42,10.0,NNE,11.5,-,N/A,,Mostly Cloudy,20,2013-03-06 15:48:00
9:58 AM,27.1,19.6,73,30.46,10.0,NNE,11.5,-,N/A,,Mostly Cloudy,20,2013-03-06 15:58:00
10:58 AM,27.9,19.9,72,30.46,10.0,North,10.4,-,N/A,,Overcast,350,2013-03-06 16:58:00
11:58 AM,29.3,20.5,70,30.45,10.0,NNE,5.8,-,N/A,,Overcast,20,2013-03-06 17:58:00
12:58 PM,31.3,21.4,67,30.44,10.0,NNE,5.8,-,N/A,,Mostly Cloudy,20,2013-03-06 18:58:00
1:03 PM,32.0,21.2,64,30.40,10.0,North,3.5,-,N/A,,Scattered Clouds,10,2013-03-06 19:03:00
1:15 PM,32.0,21.2,64,30.43,10.0,ENE,4.6,-,N/A,,Mostly Cloudy,60,2013-03-06 19:15:00
1:18 PM,32.0,21.2,64,30.43,10.0,NE,4.6,-,N/A,,Mostly Cloudy,50,2013-03-06 19:18:00
1:39 PM,32.0,21.2,64,30.39,10.0,NE,4.6,-,N/A,,Scattered Clouds,50,2013-03-06 19:39:00
1:58 PM,32.2,21.6,65,30.42,10.0,ENE,3.5,-,N/A,,Scattered Clouds,60,2013-03-06 19:58:00
2:58 PM,32.2,21.4,64,30.42,10.0,ENE,2.3,-,N/A,,Clear,70,2013-03-06 20:58:00
3:58 PM,32.2,23.0,69,30.40,10.0,North,4.6,-,N/A,,Clear,10,2013-03-06 21:58:00
4:58 PM,31.8,22.5,68,30.38,10.0,NE,6.9,-,N/A,,Clear,40,2013-03-06 22:58:00
5:58 PM,30.2,22.1,72,30.37,10.0,NE,4.6,-,N/A,,Clear,50,2013-03-06 23:58:00
6:58 PM,26.8,21.6,81,30.38,10.0,East,2.3,-,N/A,,Clear,80,2013-03-07 00:58:00
7:58 PM,25.7,21.0,82,30.37,10.0,East,2.3,-,N/A,,Clear,80,2013-03-07 01:58:00
8:58 PM,24.4,20.5,85,30.38,10.0,Calm,Calm,-,N/A,,Clear,0,2013-03-07 02:58:00
9:58 PM,23.4,20.3,88,30.37,10.0,East,2.3,-,N/A,,Clear,80,2013-03-07 03:58:00
10:58 PM,22.5,19.4,88,30.34,10.0,ENE,2.3,-,N/A,,Clear,70,2013-03-07 04:58:00
11:58 PM,21.4,19.9,94,30.34,10.0,ESE,2.3,-,N/A,,Clear,110,2013-03-07 05:58:00